Time;durP1;ratioP1;P1;durP2;ratioP2;P2;SDS_P1;SDS_P2;PMS_P1;PMS_P2;Temp;Humidity;BMP_temperature;BMP_pressure;BME280_temperature;BME280_humidity;BME280_pressure;Samples;Min_cycle;Max_cycle;Signal;HPM_P1;HPM_P2
2024/02/16 00:01:01;;;;;;;;;;;18.00;69.80;;;;;;5054362;28;19908;-72
2024/02/16 00:03:27;;;;;;;;;;;18.10;69.40;;;;;;5054302;28;19931;-72
2024/02/16 00:05:52;;;;;;;;;;;18.00;69.90;;;;;;5054404;28;19909;-72
2024/02/16 00:08:18;;;;;;;;;;;18.00;69.80;;;;;;5036320;28;19956;-72
2024/02/16 00:10:44;;;;;;;;;;;18.00;69.90;;;;;;5054315;28;19916;-72
2024/02/16 00:13:10;;;;;;;;;;;17.90;69.80;;;;;;5054746;28;19921;-72
2024/02/16 00:15:35;;;;;;;;;;;18.00;69.70;;;;;;5054220;28;19954;-72
2024/02/16 00:18:02;;;;;;;;;;;18.00;69.90;;;;;;5054075;28;19978;-72
2024/02/16 00:20:28;;;;;;;;;;;18.30;69.80;;;;;;5054001;28;20382;-72
2024/02/16 00:22:54;;;;;;;;;;;18.10;69.80;;;;;;5054313;28;19909;-72
2024/02/16 00:25:20;;;;;;;;;;;17.90;69.70;;;;;;5054043;28;20286;-72
2024/02/16 00:27:45;;;;;;;;;;;17.90;69.80;;;;;;5054332;28;20355;-71
2024/02/16 00:30:11;;;;;;;;;;;18.00;69.60;;;;;;5053434;28;19909;-72
2024/02/16 00:32:36;;;;;;;;;;;18.00;69.40;;;;;;5053642;28;19928;-72
2024/02/16 00:35:02;;;;;;;;;;;17.90;69.80;;;;;;5053919;28;19909;-73
2024/02/16 00:37:28;;;;;;;;;;;17.90;69.20;;;;;;5019318;28;20375;-72
2024/02/16 00:39:55;;;;;;;;;;;17.90;69.80;;;;;;5053740;28;19909;-72
2024/02/16 00:42:22;;;;;;;;;;;17.90;69.60;;;;;;5053631;28;19921;-72
2024/02/16 00:44:48;;;;;;;;;;;18.00;69.60;;;;;;5053736;28;19961;-73
2024/02/16 00:47:16;;;;;;;;;;;17.90;69.80;;;;;;5053536;28;19913;-72
2024/02/16 00:49:42;;;;;;;;;;;17.80;69.60;;;;;;5053483;28;19917;-72
2024/02/16 00:52:07;;;;;;;;;;;17.90;69.90;;;;;;5053653;28;19917;-72
2024/02/16 00:54:33;;;;;;;;;;;18.00;69.50;;;;;;5053403;28;19909;-72
2024/02/16 00:57:02;;;;;;;;;;;17.90;69.70;;;;;;5053481;28;19980;-72
2024/02/16 00:59:30;;;;;;;;;;;17.90;69.60;;;;;;5053608;28;19909;-69
2024/02/16 01:01:56;;;;;;;;;;;17.90;69.20;;;;;;5053033;28;19999;-69
2024/02/16 01:04:22;;;;;;;;;;;17.80;69.90;;;;;;5053315;28;20414;-69
2024/02/16 01:06:48;;;;;;;;;;;17.80;69.50;;;;;;5052991;28;19952;-69
2024/02/16 01:09:13;;;;;;;;;;;17.80;69.80;;;;;;5052899;28;19944;-69
2024/02/16 01:11:42;;;;;;;;;;;17.80;69.60;;;;;;5052862;28;19942;-69
2024/02/16 01:14:08;;;;;;;;;;;17.80;65.60;;;;;;5052983;28;20003;-72
2024/02/16 01:16:33;;;;;;;;;;;17.80;69.80;;;;;;5052976;28;19948;-72
2024/02/16 01:18:59;;;;;;;;;;;17.80;69.60;;;;;;5053013;28;19916;-72
2024/02/16 01:21:24;;;;;;;;;;;17.80;69.80;;;;;;5052930;28;19913;-72
2024/02/16 01:23:50;;;;;;;;;;;17.80;69.70;;;;;;5052949;28;20287;-72
2024/02/16 01:26:15;;;;;;;;;;;17.80;69.70;;;;;;5052832;28;20367;-72
2024/02/16 01:28:41;;;;;;;;;;;17.80;69.80;;;;;;5053311;28;20372;-72
2024/02/16 01:31:06;;;;;;;;;;;17.70;69.70;;;;;;5052773;28;19915;-72
2024/02/16 01:33:34;;;;;;;;;;;17.70;69.60;;;;;;5052515;28;19920;-72
2024/02/16 01:36:00;;;;;;;;;;;17.80;69.70;;;;;;5052880;28;20031;-72
2024/02/16 01:38:25;;;;;;;;;;;17.70;69.40;;;;;;5052887;28;20008;-72
2024/02/16 01:40:51;;;;;;;;;;;17.80;69.60;;;;;;5052603;28;19909;-73
2024/02/16 01:43:20;;;;;;;;;;;17.60;69.60;;;;;;5051908;28;20019;-72
2024/02/16 01:45:45;;;;;;;;;;;17.80;65.60;;;;;;5052507;28;20007;-72
2024/02/16 01:48:11;;;;;;;;;;;17.70;69.80;;;;;;5052573;28;19991;-72
2024/02/16 01:50:37;;;;;;;;;;;17.70;69.70;;;;;;5052757;28;19964;-73
2024/02/16 01:53:02;;;;;;;;;;;17.80;69.80;;;;;;5052413;28;19917;-73
2024/02/16 01:55:28;;;;;;;;;;;17.70;69.20;;;;;;5052454;28;20282;-72
2024/02/16 01:57:54;;;;;;;;;;;17.60;69.70;;;;;;5052911;28;19932;-72
2024/02/16 02:00:20;;;;;;;;;;;17.60;69.60;;;;;;5052328;28;19913;-72
2024/02/16 02:02:46;;;;;;;;;;;17.70;69.20;;;;;;5052257;28;20298;-72
2024/02/16 02:05:12;;;;;;;;;;;17.70;69.60;;;;;;5052361;28;19984;-73
2024/02/16 02:07:38;;;;;;;;;;;17.60;69.60;;;;;;5052638;28;19913;-73
2024/02/16 02:10:04;;;;;;;;;;;17.60;69.50;;;;;;5052343;28;20388;-73
2024/02/16 02:12:29;;;;;;;;;;;17.60;68.60;;;;;;5052223;28;19982;-72
2024/02/16 02:14:55;;;;;;;;;;;17.70;69.50;;;;;;5052464;28;19915;-72
2024/02/16 02:17:20;;;;;;;;;;;17.60;69.80;;;;;;5052457;28;19909;-72
2024/02/16 02:19:46;;;;;;;;;;;17.70;69.50;;;;;;5052111;28;19916;-72
2024/02/16 02:22:18;;;;;;;;;;;17.60;69.70;;;;;;5052180;28;19916;-73
2024/02/16 02:24:44;;;;;;;;;;;17.60;65.50;;;;;;5052077;28;19909;-72
2024/02/16 02:27:10;;;;;;;;;;;17.60;69.60;;;;;;5052832;28;19912;-73
2024/02/16 02:29:35;;;;;;;;;;;17.60;69.80;;;;;;5052112;28;20381;-73
2024/02/16 02:32:01;;;;;;;;;;;17.60;69.60;;;;;;5051985;28;20318;-73
2024/02/16 02:34:26;;;;;;;;;;;17.60;69.70;;;;;;5052079;28;19913;-73
2024/02/16 02:36:52;;;;;;;;;;;17.50;69.60;;;;;;5052037;28;19997;-72
2024/02/16 02:39:17;;;;;;;;;;;17.50;69.60;;;;;;5052182;28;19916;-72
2024/02/16 02:41:43;;;;;;;;;;;17.60;69.50;;;;;;5051957;28;19909;-72
2024/02/16 02:44:09;;;;;;;;;;;17.60;69.70;;;;;;5051977;28;19917;-72
2024/02/16 02:46:35;;;;;;;;;;;17.50;69.50;;;;;;5051934;28;19916;-72
2024/02/16 02:49:00;;;;;;;;;;;17.50;69.70;;;;;;5051867;28;19909;-72
2024/02/16 02:51:26;;;;;;;;;;;17.50;69.50;;;;;;5051821;28;19917;-72
2024/02/16 02:53:52;;;;;;;;;;;17.50;69.50;;;;;;5054164;28;19996;-69
2024/02/16 02:56:18;;;;;;;;;;;17.40;69.40;;;;;;5055571;28;19940;-69
2024/02/16 02:58:43;;;;;;;;;;;17.40;69.50;;;;;;5055416;28;19909;-68
2024/02/16 03:01:09;;;;;;;;;;;17.60;69.30;;;;;;5055584;28;20343;-69
2024/02/16 03:03:34;;;;;;;;;;;17.80;69.70;;;;;;5055392;28;19981;-69
2024/02/16 03:06:00;;;;;;;;;;;17.40;69.50;;;;;;5055326;28;20355;-69
2024/02/16 03:08:25;;;;;;;;;;;17.40;69.50;;;;;;5055388;28;19963;-68
2024/02/16 03:10:51;;;;;;;;;;;17.40;69.60;;;;;;5055185;28;20279;-69
2024/02/16 03:13:18;;;;;;;;;;;17.50;69.60;;;;;;5055262;28;19917;-69
2024/02/16 03:15:46;;;;;;;;;;;17.40;69.50;;;;;;5055124;28;19909;-69
2024/02/16 03:18:13;;;;;;;;;;;17.50;69.80;;;;;;5055096;28;19919;-69
2024/02/16 03:20:38;;;;;;;;;;;17.40;69.40;;;;;;5054992;28;19909;-69
2024/02/16 03:23:04;;;;;;;;;;;17.40;69.80;;;;;;5055544;28;19908;-69
2024/02/16 03:25:30;;;;;;;;;;;17.40;69.60;;;;;;5054965;28;19912;-69
2024/02/16 03:27:56;;;;;;;;;;;17.40;69.40;;;;;;5054905;28;19979;-69
2024/02/16 03:30:21;;;;;;;;;;;17.40;69.70;;;;;;5054741;28;20356;-69
2024/02/16 03:32:50;;;;;;;;;;;17.40;69.50;;;;;;5054567;28;19921;-69
2024/02/16 03:35:16;;;;;;;;;;;17.40;65.60;;;;;;5054856;28;20283;-69
2024/02/16 03:37:42;;;;;;;;;;;17.40;69.70;;;;;;5054702;28;19995;-69
2024/02/16 03:40:09;;;;;;;;;;;17.70;70.10;;;;;;5054634;28;19992;-69
2024/02/16 03:42:35;;;;;;;;;;;17.30;68.20;;;;;;5054655;28;19948;-69
2024/02/16 03:45:02;;;;;;;;;;;17.40;69.90;;;;;;5054552;28;20325;-69
2024/02/16 03:47:27;;;;;;;;;;;17.30;69.80;;;;;;5054569;28;19909;-69
2024/02/16 03:49:53;;;;;;;;;;;17.30;69.80;;;;;;5054404;28;19916;-69
2024/02/16 03:52:18;;;;;;;;;;;17.30;69.60;;;;;;5054913;28;20093;-69
2024/02/16 03:54:47;;;;;;;;;;;17.40;69.60;;;;;;5054446;28;20042;-69
2024/02/16 03:57:13;;;;;;;;;;;17.30;69.90;;;;;;5054420;28;19916;-69
2024/02/16 03:59:39;;;;;;;;;;;17.30;69.60;;;;;;5054424;28;19908;-69
2024/02/16 04:02:04;;;;;;;;;;;17.40;69.40;;;;;;5054230;28;19915;-69
2024/02/16 04:04:30;;;;;;;;;;;17.30;70.00;;;;;;5053681;28;19909;-69
2024/02/16 04:06:57;;;;;;;;;;;17.30;67.60;;;;;;5053402;28;20147;-69
2024/02/16 04:09:23;;;;;;;;;;;17.30;69.90;;;;;;5054177;28;19913;-69
2024/02/16 04:11:48;;;;;;;;;;;17.30;69.80;;;;;;5036262;28;20357;-68
2024/02/16 04:14:14;;;;;;;;;;;17.20;70.10;;;;;;5054310;28;19909;-68
2024/02/16 04:16:42;;;;;;;;;;;17.40;69.80;;;;;;5054081;28;19955;-69
2024/02/16 04:19:07;;;;;;;;;;;17.20;69.70;;;;;;5054471;28;20357;-69
2024/02/16 04:21:33;;;;;;;;;;;17.30;69.80;;;;;;5053950;28;19948;-69
2024/02/16 04:23:58;;;;;;;;;;;17.20;69.80;;;;;;5053919;28;19913;-69
2024/02/16 04:26:24;;;;;;;;;;;17.30;69.90;;;;;;5053799;28;19955;-69
2024/02/16 04:28:50;;;;;;;;;;;17.20;69.60;;;;;;5053803;28;19917;-69
2024/02/16 04:31:15;;;;;;;;;;;17.20;69.80;;;;;;5053695;28;19969;-69
2024/02/16 04:33:40;;;;;;;;;;;17.20;69.60;;;;;;5053622;28;19921;-69
2024/02/16 04:36:07;;;;;;;;;;;17.30;69.90;;;;;;5053643;28;19979;-69
2024/02/16 04:38:32;;;;;;;;;;;17.30;68.10;;;;;;5053903;28;19912;-69
2024/02/16 04:40:58;;;;;;;;;;;17.20;69.90;;;;;;5053469;28;20351;-69
2024/02/16 04:43:23;;;;;;;;;;;17.20;69.70;;;;;;5053535;28;20000;-69
2024/02/16 04:45:49;;;;;;;;;;;17.20;69.90;;;;;;5053551;28;19920;-69
2024/02/16 04:48:14;;;;;;;;;;;17.20;69.80;;;;;;5053925;28;20272;-69
2024/02/16 04:50:40;;;;;;;;;;;17.20;69.90;;;;;;5053333;28;19909;-69
2024/02/16 04:53:05;;;;;;;;;;;17.10;69.70;;;;;;5053223;28;19971;-69
2024/02/16 04:55:31;;;;;;;;;;;17.20;70.00;;;;;;5035276;28;19963;-69
2024/02/16 04:57:56;;;;;;;;;;;17.10;69.80;;;;;;5035299;28;20004;-70
2024/02/16 05:00:22;;;;;;;;;;;17.20;69.30;;;;;;5053143;28;19909;-70
2024/02/16 05:02:48;;;;;;;;;;;17.20;69.70;;;;;;5053134;28;19909;-70
2024/02/16 05:05:15;;;;;;;;;;;17.10;70.20;;;;;;5053021;28;19962;-70
2024/02/16 05:07:42;;;;;;;;;;;17.20;69.90;;;;;;5053361;28;19953;-70
2024/02/16 05:10:10;;;;;;;;;;;17.10;70.80;;;;;;5052972;28;19944;-69
2024/02/16 05:12:36;;;;;;;;;;;17.10;65.90;;;;;;5053100;28;20322;-70
2024/02/16 05:15:02;;;;;;;;;;;17.20;70.50;;;;;;5052967;28;20019;-70
2024/02/16 05:17:28;;;;;;;;;;;17.10;69.90;;;;;;5053254;28;20375;-70
2024/02/16 05:19:53;;;;;;;;;;;17.10;70.20;;;;;;5052851;28;19954;-70
2024/02/16 05:22:19;;;;;;;;;;;17.10;70.00;;;;;;5052687;28;20380;-70
2024/02/16 05:24:45;;;;;;;;;;;17.10;70.30;;;;;;5053017;28;19916;-70
2024/02/16 05:27:10;;;;;;;;;;;17.20;70.40;;;;;;5052696;28;19931;-70
2024/02/16 05:29:36;;;;;;;;;;;17.10;70.40;;;;;;5052616;28;19915;-70
2024/02/16 05:32:01;;;;;;;;;;;17.10;70.30;;;;;;5052408;28;20071;-70
2024/02/16 05:34:32;;;;;;;;;;;17.10;70.40;;;;;;5052543;28;20390;-69
2024/02/16 05:36:57;;;;;;;;;;;17.00;70.40;;;;;;5052773;28;19909;-69
2024/02/16 05:39:26;;;;;;;;;;;17.10;70.60;;;;;;5052517;28;19935;-70
2024/02/16 05:41:53;;;;;;;;;;;17.10;67.10;;;;;;5052425;28;19909;-70
2024/02/16 05:44:19;;;;;;;;;;;17.00;70.80;;;;;;5052398;28;20003;-70
2024/02/16 05:46:45;;;;;;;;;;;17.10;70.60;;;;;;5052830;28;19908;-70
2024/02/16 05:49:10;;;;;;;;;;;17.00;70.60;;;;;;5052354;28;19915;-70
2024/02/16 05:51:36;;;;;;;;;;;17.10;70.80;;;;;;5052380;28;19916;-70
2024/02/16 05:54:02;;;;;;;;;;;17.10;70.60;;;;;;5052312;28;19969;-70
2024/02/16 05:56:28;;;;;;;;;;;17.00;70.70;;;;;;5052340;28;19913;-70
2024/02/16 05:58:54;;;;;;;;;;;17.00;70.50;;;;;;5052358;28;19991;-70
2024/02/16 06:01:19;;;;;;;;;;;17.00;70.20;;;;;;5052198;28;20295;-70
2024/02/16 06:03:44;;;;;;;;;;;17.00;70.60;;;;;;5052218;28;19987;-70
2024/02/16 06:06:10;;;;;;;;;;;17.00;70.80;;;;;;5052253;28;19915;-70
2024/02/16 06:08:35;;;;;;;;;;;17.00;70.60;;;;;;5052101;28;19916;-70
2024/02/16 06:11:02;;;;;;;;;;;17.10;70.80;;;;;;5052148;28;19909;-71
2024/02/16 06:13:29;;;;;;;;;;;17.00;70.70;;;;;;5052632;28;19913;-70
2024/02/16 06:15:55;;;;;;;;;;;17.10;71.00;;;;;;5052041;28;19916;-70
2024/02/16 06:18:20;;;;;;;;;;;17.00;70.70;;;;;;5051990;28;19908;-70
2024/02/16 06:20:46;;;;;;;;;;;17.00;71.00;;;;;;5051966;28;20307;-70
2024/02/16 06:23:11;;;;;;;;;;;17.00;70.80;;;;;;5052285;28;19932;-70
2024/02/16 06:25:37;;;;;;;;;;;17.00;70.50;;;;;;5051931;28;19988;-69
2024/02/16 06:28:04;;;;;;;;;;;17.00;70.80;;;;;;5052717;28;19909;-70
2024/02/16 06:30:30;;;;;;;;;;;17.00;70.20;;;;;;5055923;28;20019;-70
2024/02/16 06:32:55;;;;;;;;;;;17.00;70.50;;;;;;5055611;28;20015;-70
2024/02/16 06:35:21;;;;;;;;;;;17.00;70.70;;;;;;5055868;28;19912;-70
2024/02/16 06:37:46;;;;;;;;;;;17.00;70.60;;;;;;5056099;28;19916;-70
2024/02/16 06:40:12;;;;;;;;;;;15.90;70.30;;;;;;5055868;28;19952;-70
2024/02/16 06:42:38;;;;;;;;;;;17.00;70.00;;;;;;5056299;28;19914;-71
2024/02/16 06:45:05;;;;;;;;;;;17.00;70.90;;;;;;5055941;28;19970;-70
2024/02/16 06:47:33;;;;;;;;;;;17.00;69.50;;;;;;5055725;28;19935;-70
2024/02/16 06:49:59;;;;;;;;;;;17.00;70.90;;;;;;5055638;28;19916;-70
2024/02/16 06:52:24;;;;;;;;;;;17.30;70.90;;;;;;5055571;28;19917;-69
2024/02/16 06:54:51;;;;;;;;;;;17.00;71.00;;;;;;5038044;28;19935;-70
2024/02/16 06:57:17;;;;;;;;;;;17.00;70.70;;;;;;5055483;28;19972;-70
2024/02/16 06:59:42;;;;;;;;;;;17.00;70.90;;;;;;5055423;28;19917;-70
2024/02/16 07:02:09;;;;;;;;;;;17.00;70.40;;;;;;5055328;28;19909;-70
2024/02/16 07:04:34;;;;;;;;;;;17.00;70.90;;;;;;5055337;28;19995;-70
2024/02/16 07:07:00;;;;;;;;;;;17.00;70.90;;;;;;5055256;28;19951;-70
2024/02/16 07:09:25;;;;;;;;;;;17.00;70.80;;;;;;5055259;28;19909;-70
2024/02/16 07:11:51;;;;;;;;;;;17.00;70.40;;;;;;5055615;28;19928;-70
2024/02/16 07:14:17;;;;;;;;;;;17.00;70.80;;;;;;5055213;28;19962;-70
2024/02/16 07:16:42;;;;;;;;;;;17.10;71.10;;;;;;5055165;28;19909;-70
2024/02/16 07:19:08;;;;;;;;;;;17.10;70.70;;;;;;5055111;28;19952;-70
2024/02/16 07:21:34;;;;;;;;;;;17.10;71.00;;;;;;5056294;28;19954;-70
2024/02/16 07:23:59;;;;;;;;;;;17.00;71.00;;;;;;5055240;28;19912;-70
2024/02/16 07:26:25;;;;;;;;;;;17.00;71.10;;;;;;5055104;28;19908;-70
2024/02/16 07:28:50;;;;;;;;;;;17.00;71.00;;;;;;5055025;28;19908;-70
2024/02/16 07:31:16;;;;;;;;;;;17.10;71.30;;;;;;5055260;28;20002;-68
2024/02/16 07:33:41;;;;;;;;;;;17.10;71.20;;;;;;5055248;28;19921;-70
2024/02/16 07:36:07;;;;;;;;;;;17.10;71.50;;;;;;5055127;28;20008;-70
2024/02/16 07:38:33;;;;;;;;;;;17.20;71.30;;;;;;5055760;28;19915;-73
2024/02/16 07:40:59;;;;;;;;;;;17.20;71.90;;;;;;5055254;28;19912;-74
2024/02/16 07:43:24;;;;;;;;;;;17.10;71.60;;;;;;5055322;28;19909;-73
2024/02/16 07:45:50;;;;;;;;;;;17.10;71.60;;;;;;5054741;28;19913;-73
2024/02/16 07:48:15;;;;;;;;;;;17.10;71.40;;;;;;5054728;28;19913;-75
2024/02/16 07:50:41;;;;;;;;;;;17.10;71.60;;;;;;5054728;28;19909;-81
2024/02/16 07:53:07;;;;;;;;;;;17.20;71.40;;;;;;5054563;28;19917;-73
2024/02/16 07:55:32;;;;;;;;;;;17.20;71.70;;;;;;5054826;28;20003;-73
2024/02/16 07:57:58;;;;;;;;;;;17.20;71.90;;;;;;5037062;28;20363;-74
2024/02/16 08:00:24;;;;;;;;;;;17.20;71.80;;;;;;5054829;28;19909;-73
2024/02/16 08:02:50;;;;;;;;;;;17.30;71.30;;;;;;5054388;28;20370;-73
2024/02/16 08:05:18;;;;;;;;;;;17.20;72.20;;;;;;5054528;28;19952;-73
2024/02/16 08:07:44;;;;;;;;;;;15.90;71.20;;;;;;5055217;28;19909;-73
2024/02/16 08:10:10;;;;;;;;;;;17.40;71.90;;;;;;5054564;28;19923;-73
2024/02/16 08:12:36;;;;;;;;;;;17.30;72.10;;;;;;5054644;28;20379;-80
2024/02/16 08:15:03;;;;;;;;;;;17.30;72.00;;;;;;5054781;28;19915;-73
2024/02/16 08:17:29;;;;;;;;;;;17.30;72.10;;;;;;5054463;28;19917;-76
2024/02/16 08:19:55;;;;;;;;;;;18.80;72.80;;;;;;5054736;28;19909;-73
2024/02/16 08:22:21;;;;;;;;;;;17.30;72.00;;;;;;5054179;28;19909;-72
2024/02/16 08:24:46;;;;;;;;;;;17.40;72.30;;;;;;5054208;28;19932;-75
2024/02/16 08:27:15;;;;;;;;;;;17.30;72.00;;;;;;5054034;28;20348;-75
2024/02/16 08:29:43;;;;;;;;;;;17.40;67.90;;;;;;5054019;28;19955;-76
2024/02/16 08:32:09;;;;;;;;;;;17.40;72.20;;;;;;5054010;28;19956;-76
2024/02/16 08:34:36;;;;;;;;;;;17.40;72.20;;;;;;5053849;28;19927;-74
2024/02/16 08:37:03;;;;;;;;;;;17.40;72.30;;;;;;5053867;28;19992;-73
2024/02/16 08:39:29;;;;;;;;;;;17.40;72.20;;;;;;5054145;28;19916;-74
2024/02/16 08:41:58;;;;;;;;;;;17.40;72.50;;;;;;5053795;28;20390;-73
2024/02/16 08:44:25;;;;;;;;;;;17.40;68.00;;;;;;5053561;28;19916;-73
2024/02/16 08:46:51;;;;;;;;;;;17.40;72.20;;;;;;5053983;28;19962;-72
2024/02/16 08:49:16;;;;;;;;;;;17.50;72.50;;;;;;5053591;28;20423;-73
2024/02/16 08:51:42;;;;;;;;;;;17.50;72.30;;;;;;5053170;28;19917;-73
2024/02/16 08:54:08;;;;;;;;;;;17.50;72.20;;;;;;5053506;28;20293;-73
2024/02/16 08:56:35;;;;;;;;;;;17.50;72.30;;;;;;5053488;28;19909;-73
2024/02/16 08:59:03;;;;;;;;;;;17.40;71.90;;;;;;5053729;28;19920;-73
2024/02/16 09:01:32;;;;;;;;;;;17.60;71.70;;;;;;5053243;28;19963;-73
2024/02/16 09:03:58;;;;;;;;;;;17.50;68.20;;;;;;5053284;28;19913;-73
2024/02/16 09:06:24;;;;;;;;;;;17.60;72.40;;;;;;5053791;28;19915;-73
2024/02/16 09:08:49;;;;;;;;;;;17.50;72.40;;;;;;5053239;28;20395;-73
2024/02/16 09:11:15;;;;;;;;;;;17.60;72.20;;;;;;5053052;28;19908;-73
2024/02/16 09:13:40;;;;;;;;;;;17.60;72.50;;;;;;5053208;28;19944;-73
2024/02/16 09:16:07;;;;;;;;;;;17.60;72.20;;;;;;5053448;28;20308;-73
2024/02/16 09:18:32;;;;;;;;;;;17.70;72.20;;;;;;5052967;28;19970;-74
2024/02/16 09:20:58;;;;;;;;;;;17.60;72.40;;;;;;5053083;28;20334;-73
2024/02/16 09:23:23;;;;;;;;;;;17.50;72.50;;;;;;5052986;28;19909;-72
2024/02/16 09:25:50;;;;;;;;;;;17.60;72.60;;;;;;5035187;28;19920;-73
2024/02/16 09:28:16;;;;;;;;;;;18.00;73.40;;;;;;5053122;28;20272;-73
2024/02/16 09:30:42;;;;;;;;;;;17.70;72.20;;;;;;5053171;28;19909;-73
2024/02/16 09:33:07;;;;;;;;;;;17.70;72.50;;;;;;5052763;28;19943;-72
2024/02/16 09:35:33;;;;;;;;;;;17.70;72.20;;;;;;5052814;28;20008;-73
2024/02/16 09:37:58;;;;;;;;;;;17.70;72.60;;;;;;5052700;28;19909;-73
2024/02/16 09:40:24;;;;;;;;;;;18.00;72.60;;;;;;5052757;28;19909;-73
2024/02/16 09:42:49;;;;;;;;;;;17.70;72.30;;;;;;5052688;28;19920;-73
2024/02/16 09:45:15;;;;;;;;;;;17.70;72.20;;;;;;5052588;28;19909;-74
2024/02/16 09:47:42;;;;;;;;;;;17.80;72.40;;;;;;5057465;28;19915;-73
2024/02/16 09:50:09;;;;;;;;;;;17.80;73.20;;;;;;5052468;28;20297;-73
2024/02/16 09:52:38;;;;;;;;;;;17.80;72.30;;;;;;5052757;28;20252;-73
2024/02/16 09:55:06;;;;;;;;;;;18.20;72.80;;;;;;5052419;28;19916;-72
2024/02/16 09:57:32;;;;;;;;;;;17.70;71.90;;;;;;5052456;28;19909;-72
2024/02/16 09:59:57;;;;;;;;;;;17.80;72.40;;;;;;5052393;28;19920;-73
2024/02/16 10:02:23;;;;;;;;;;;17.90;71.80;;;;;;5051889;28;19948;-74
2024/02/16 10:04:49;;;;;;;;;;;18.00;72.40;;;;;;5052375;28;19916;-73
2024/02/16 10:07:15;;;;;;;;;;;17.80;72.10;;;;;;5052432;28;19909;-73
2024/02/16 10:09:40;;;;;;;;;;;17.80;72.20;;;;;;5052383;28;20287;-74
2024/02/16 10:12:06;;;;;;;;;;;17.80;72.10;;;;;;5052306;28;20003;-74
2024/02/16 10:14:32;;;;;;;;;;;17.90;71.90;;;;;;5052346;28;19974;-73
2024/02/16 10:17:02;;;;;;;;;;;17.80;72.40;;;;;;5052287;28;19990;-74
2024/02/16 10:19:28;;;;;;;;;;;17.90;71.70;;;;;;5052557;28;19909;-73
2024/02/16 10:21:54;;;;;;;;;;;17.90;72.40;;;;;;5052206;28;19915;-74
2024/02/16 10:24:22;;;;;;;;;;;17.90;72.10;;;;;;5052264;28;20291;-73
2024/02/16 10:26:48;;;;;;;;;;;17.90;68.10;;;;;;5052228;28;19948;-73
2024/02/16 10:29:17;;;;;;;;;;;17.90;72.20;;;;;;5052565;28;19909;-73
2024/02/16 10:31:43;;;;;;;;;;;18.00;72.20;;;;;;5052038;28;19917;-73
2024/02/16 10:34:09;;;;;;;;;;;18.00;71.50;;;;;;5052013;28;20369;-73
2024/02/16 10:36:38;;;;;;;;;;;18.00;72.00;;;;;;5052127;28;19909;-73
2024/02/16 10:39:05;;;;;;;;;;;17.90;68.10;;;;;;5052058;28;19999;-73
2024/02/16 10:41:34;;;;;;;;;;;17.90;72.00;;;;;;5051957;28;19913;-73
2024/02/16 10:44:01;;;;;;;;;;;17.90;72.20;;;;;;5051994;28;20394;-72
2024/02/16 10:46:27;;;;;;;;;;;17.90;71.90;;;;;;5052304;28;20275;-74
2024/02/16 10:48:52;;;;;;;;;;;18.00;72.10;;;;;;5051939;28;19916;-71
2024/02/16 10:51:20;;;;;;;;;;;17.90;71.70;;;;;;5051723;28;19908;-71
2024/02/16 10:53:47;;;;;;;;;;;17.90;71.90;;;;;;5051810;28;20291;-71
2024/02/16 10:56:13;;;;;;;;;;;18.00;72.10;;;;;;5051661;28;20424;-71
2024/02/16 10:58:39;;;;;;;;;;;17.80;71.80;;;;;;5051601;28;19994;-71
2024/02/16 11:01:12;;;;;;;;;;;17.80;71.80;;;;;;5051571;28;19909;-71
2024/02/16 11:03:38;;;;;;;;;;;17.90;67.30;;;;;;5051708;28;19909;-71
2024/02/16 11:06:14;;;;;;;;;;;18.10;72.10;;;;;;5051675;28;19920;-71
2024/02/16 11:08:40;;;;;;;;;;;17.90;70.70;;;;;;5058438;28;20399;-71
2024/02/16 11:11:06;;;;;;;;;;;17.90;71.60;;;;;;5051707;28;19909;-71
2024/02/16 11:13:33;;;;;;;;;;;17.90;71.80;;;;;;5050649;28;19916;-71
2024/02/16 11:16:02;;;;;;;;;;;17.90;71.80;;;;;;5053676;28;20455;-71
2024/02/16 11:18:28;;;;;;;;;;;18.10;72.00;;;;;;5055442;28;19916;-71
2024/02/16 11:20:54;;;;;;;;;;;17.90;71.90;;;;;;5054898;28;20000;-71
2024/02/16 11:23:24;;;;;;;;;;;18.00;71.70;;;;;;5055461;28;19920;-73
2024/02/16 11:25:51;;;;;;;;;;;17.90;71.60;;;;;;5055361;28;20264;-72
2024/02/16 11:28:17;;;;;;;;;;;18.00;71.50;;;;;;5055012;28;19909;-73
2024/02/16 11:30:43;;;;;;;;;;;17.90;71.80;;;;;;5054712;28;20390;-72
2024/02/16 11:33:11;;;;;;;;;;;18.00;71.30;;;;;;5054664;28;19971;-72
2024/02/16 11:35:38;;;;;;;;;;;17.90;67.50;;;;;;5055008;28;20252;-73
2024/02/16 11:38:04;;;;;;;;;;;18.00;71.60;;;;;;5054794;28;19916;-72
2024/02/16 11:40:30;;;;;;;;;;;17.90;71.20;;;;;;5054901;28;19909;-73
2024/02/16 11:42:59;;;;;;;;;;;17.90;71.40;;;;;;5037084;28;19962;-72
2024/02/16 11:45:26;;;;;;;;;;;17.90;67.70;;;;;;5054801;28;20260;-69
2024/02/16 11:48:02;;;;;;;;;;;18.00;71.70;;;;;;5054380;28;19983;-71
2024/02/16 11:50:27;;;;;;;;;;;17.90;71.90;;;;;;5053801;28;20004;-70
2024/02/16 11:52:54;;;;;;;;;;;17.90;72.00;;;;;;5052815;28;20004;-70
2024/02/16 11:55:20;;;;;;;;;;;18.00;72.70;;;;;;5053172;28;19920;-70
2024/02/16 11:57:50;;;;;;;;;;;18.00;72.00;;;;;;5053982;28;19911;-70
2024/02/16 12:00:16;;;;;;;;;;;18.00;72.10;;;;;;5053519;28;19932;-70
2024/02/16 12:02:41;;;;;;;;;;;18.10;71.80;;;;;;5054155;28;20379;-70
2024/02/16 12:05:07;;;;;;;;;;;18.10;72.20;;;;;;5054389;28;19916;-70
2024/02/16 12:07:33;;;;;;;;;;;18.00;71.10;;;;;;5054472;28;19915;-71
2024/02/16 12:10:00;;;;;;;;;;;18.00;72.80;;;;;;5054192;28;19909;-70
2024/02/16 12:12:26;;;;;;;;;;;18.00;72.10;;;;;;5054135;28;19924;-70
2024/02/16 12:14:55;;;;;;;;;;;18.00;72.10;;;;;;5052892;28;19908;-70
2024/02/16 12:17:20;;;;;;;;;;;18.50;68.40;;;;;;5052598;28;19987;-70
2024/02/16 12:19:47;;;;;;;;;;;18.10;72.10;;;;;;5053427;28;19909;-70
2024/02/16 12:22:18;;;;;;;;;;;18.10;72.30;;;;;;5054314;28;20322;-70
2024/02/16 12:24:47;;;;;;;;;;;18.20;68.20;;;;;;5054101;28;19908;-70
2024/02/16 12:27:13;;;;;;;;;;;18.00;72.10;;;;;;5053336;28;20232;-70
2024/02/16 12:29:38;;;;;;;;;;;18.20;72.20;;;;;;5053931;28;19909;-70
2024/02/16 12:32:04;;;;;;;;;;;18.10;71.90;;;;;;5053791;28;19913;-70
2024/02/16 12:34:30;;;;;;;;;;;18.10;70.80;;;;;;5053568;28;19932;-70
2024/02/16 12:36:55;;;;;;;;;;;18.10;71.90;;;;;;5053917;28;19909;-69
2024/02/16 12:39:20;;;;;;;;;;;18.10;72.10;;;;;;5053817;28;19909;-70
2024/02/16 12:41:46;;;;;;;;;;;18.00;72.00;;;;;;5053721;28;19947;-70
2024/02/16 12:44:12;;;;;;;;;;;18.20;72.00;;;;;;5053549;28;19954;-69
2024/02/16 12:46:38;;;;;;;;;;;18.30;72.10;;;;;;5053590;28;20007;-70
2024/02/16 12:49:04;;;;;;;;;;;18.10;71.50;;;;;;5053484;28;19909;-70
2024/02/16 12:51:29;;;;;;;;;;;18.10;72.00;;;;;;5053340;28;19913;-70
2024/02/16 12:53:55;;;;;;;;;;;18.10;72.10;;;;;;5053396;28;19915;-70
2024/02/16 12:56:21;;;;;;;;;;;18.10;72.00;;;;;;5053486;28;19955;-69
2024/02/16 12:58:46;;;;;;;;;;;18.10;71.90;;;;;;5053429;28;19909;-69
2024/02/16 13:01:12;;;;;;;;;;;18.30;71.80;;;;;;5053290;28;19916;-70
2024/02/16 13:03:39;;;;;;;;;;;18.10;72.00;;;;;;5053379;28;19909;-70
2024/02/16 13:06:05;;;;;;;;;;;18.10;72.10;;;;;;5053279;28;20367;-70
2024/02/16 13:08:31;;;;;;;;;;;18.10;71.60;;;;;;5053240;28;20394;-70
2024/02/16 13:10:57;;;;;;;;;;;18.20;72.20;;;;;;5053183;28;19909;-70
2024/02/16 13:13:22;;;;;;;;;;;18.10;72.00;;;;;;5053060;28;19970;-70
2024/02/16 13:15:48;;;;;;;;;;;18.20;72.20;;;;;;5053177;28;19913;-70
2024/02/16 13:18:14;;;;;;;;;;;18.20;72.30;;;;;;5053051;28;19932;-70
2024/02/16 13:20:40;;;;;;;;;;;18.20;72.30;;;;;;5053054;28;20371;-69
2024/02/16 13:23:05;;;;;;;;;;;18.20;72.10;;;;;;5053015;28;19916;-69
2024/02/16 13:25:31;;;;;;;;;;;18.10;72.30;;;;;;5052989;28;19909;-70
2024/02/16 13:27:56;;;;;;;;;;;17.50;72.30;;;;;;5052973;28;19932;-69
2024/02/16 13:30:22;;;;;;;;;;;18.20;72.20;;;;;;5052870;28;19956;-69
2024/02/16 13:32:48;;;;;;;;;;;18.20;72.30;;;;;;5034873;28;20255;-68
2024/02/16 13:35:14;;;;;;;;;;;18.10;71.90;;;;;;5053069;28;20324;-70
2024/02/16 13:37:41;;;;;;;;;;;18.30;72.20;;;;;;5051835;28;20011;-70
2024/02/16 13:40:10;;;;;;;;;;;18.20;72.20;;;;;;5052668;28;19909;-69
2024/02/16 13:42:36;;;;;;;;;;;18.20;71.50;;;;;;5052752;28;19913;-70
2024/02/16 13:45:01;;;;;;;;;;;18.20;72.20;;;;;;5052728;28;19909;-71
2024/02/16 13:47:27;;;;;;;;;;;18.20;72.30;;;;;;5052564;28;19978;-70
2024/02/16 13:49:52;;;;;;;;;;;18.20;72.20;;;;;;5052643;28;19908;-70
2024/02/16 13:52:18;;;;;;;;;;;18.20;72.20;;;;;;5052522;28;19917;-70
2024/02/16 13:54:43;;;;;;;;;;;18.20;72.10;;;;;;5034636;28;19992;-71
2024/02/16 13:57:09;;;;;;;;;;;18.30;71.90;;;;;;5034654;28;19917;-70
2024/02/16 13:59:34;;;;;;;;;;;18.20;72.10;;;;;;5052498;28;19963;-70
2024/02/16 14:02:00;;;;;;;;;;;18.30;71.70;;;;;;5052352;28;20287;-70
2024/02/16 14:04:26;;;;;;;;;;;18.30;72.40;;;;;;5052580;28;19951;-70
2024/02/16 14:06:52;;;;;;;;;;;18.30;72.10;;;;;;5052349;28;20007;-70
2024/02/16 14:09:17;;;;;;;;;;;18.30;72.20;;;;;;5052418;28;20335;-71